sensor_id;sensor_type;location;lat;lon;timestamp;temperature;humidity
17529;DHT22;8882;53.192;8.184;2023-02-16T05:31:12;4.50;99.90
17529;DHT22;8882;53.192;8.184;2023-02-16T05:33:38;4.60;99.90
17529;DHT22;8882;53.192;8.184;2023-02-16T05:36:04;4.50;99.90
17529;DHT22;8882;53.192;8.184;2023-02-16T05:38:29;4.50;99.90
17529;DHT22;8882;53.192;8.184;2023-02-16T05:40:55;4.60;99.90
17529;DHT22;8882;53.192;8.184;2023-02-16T05:43:20;4.50;99.90
17529;DHT22;8882;53.192;8.184;2023-02-16T05:45:46;4.60;99.90
17529;DHT22;8882;53.192;8.184;2023-02-16T05:48:11;4.60;99.90
17529;DHT22;8882;53.192;8.184;2023-02-16T05:50:37;4.60;99.90
17529;DHT22;8882;53.192;8.184;2023-02-16T05:53:02;4.60;99.90
17529;DHT22;8882;53.192;8.184;2023-02-16T05:55:28;4.60;99.90
17529;DHT22;8882;53.192;8.184;2023-02-16T05:57:53;4.60;99.90
17529;DHT22;8882;53.192;8.184;2023-02-16T06:00:19;4.60;99.90
17529;DHT22;8882;53.192;8.184;2023-02-16T06:02:44;4.60;99.90
17529;DHT22;8882;53.192;8.184;2023-02-16T06:05:10;4.60;99.90
17529;DHT22;8882;53.192;8.184;2023-02-16T06:07:35;4.60;99.90
17529;DHT22;8882;53.192;8.184;2023-02-16T06:10:01;4.70;99.90
17529;DHT22;8882;53.192;8.184;2023-02-16T06:12:26;4.70;99.90
17529;DHT22;8882;53.192;8.184;2023-02-16T06:14:52;4.80;99.90
17529;DHT22;8882;53.192;8.184;2023-02-16T06:17:17;4.80;99.90
17529;DHT22;8882;53.192;8.184;2023-02-16T06:19:43;4.80;99.90
17529;DHT22;8882;53.192;8.184;2023-02-16T06:22:08;4.80;99.90
17529;DHT22;8882;53.192;8.184;2023-02-16T06:24:34;4.90;99.90
17529;DHT22;8882;53.192;8.184;2023-02-16T06:26:59;4.90;99.90
17529;DHT22;8882;53.192;8.184;2023-02-16T06:29:25;4.90;99.90
17529;DHT22;8882;53.192;8.184;2023-02-16T06:31:50;4.90;99.90
17529;DHT22;8882;53.192;8.184;2023-02-16T06:34:16;5.00;99.90
17529;DHT22;8882;53.192;8.184;2023-02-16T06:36:41;4.90;99.90
17529;DHT22;8882;53.192;8.184;2023-02-16T06:39:07;5.00;99.90
17529;DHT22;8882;53.192;8.184;2023-02-16T06:41:32;5.00;99.90
17529;DHT22;8882;53.192;8.184;2023-02-16T06:44:09;5.00;99.90
17529;DHT22;8882;53.192;8.184;2023-02-16T06:46:39;5.10;99.90
17529;DHT22;8882;53.192;8.184;2023-02-16T06:49:05;5.00;99.90
17529;DHT22;8882;53.192;8.184;2023-02-16T06:51:30;5.10;99.90
17529;DHT22;8882;53.192;8.184;2023-02-16T06:53:56;5.10;99.90
17529;DHT22;8882;53.192;8.184;2023-02-16T06:56:22;5.10;99.90
17529;DHT22;8882;53.192;8.184;2023-02-16T06:58:48;5.10;99.90
17529;DHT22;8882;53.192;8.184;2023-02-16T07:01:14;5.10;99.90
17529;DHT22;8882;53.192;8.184;2023-02-16T07:03:39;5.10;99.90
17529;DHT22;8882;53.192;8.184;2023-02-16T07:06:05;5.20;99.90
17529;DHT22;8882;53.192;8.184;2023-02-16T07:08:31;5.20;99.90
17529;DHT22;8882;53.192;8.184;2023-02-16T07:10:56;5.20;99.90
17529;DHT22;8882;53.192;8.184;2023-02-16T07:13:22;5.20;99.90
17529;DHT22;8882;53.192;8.184;2023-02-16T07:15:48;5.20;99.90
17529;DHT22;8882;53.192;8.184;2023-02-16T07:18:13;5.20;99.90
17529;DHT22;8882;53.192;8.184;2023-02-16T07:20:39;5.20;99.90
17529;DHT22;8882;53.192;8.184;2023-02-16T07:23:05;5.20;99.90
17529;DHT22;8882;53.192;8.184;2023-02-16T07:25:31;5.20;99.90
17529;DHT22;8882;53.192;8.184;2023-02-16T07:27:56;5.30;99.90
17529;DHT22;8882;53.192;8.184;2023-02-16T07:30:22;5.30;99.90
17529;DHT22;8882;53.192;8.184;2023-02-16T07:32:48;5.40;99.90
17529;DHT22;8882;53.192;8.184;2023-02-16T07:35:13;5.30;99.90
17529;DHT22;8882;53.192;8.184;2023-02-16T07:37:39;5.30;99.90
17529;DHT22;8882;53.192;8.184;2023-02-16T07:40:05;5.40;99.90
17529;DHT22;8882;53.192;8.184;2023-02-16T07:42:32;5.40;99.90
17529;DHT22;8882;53.192;8.184;2023-02-16T07:44:58;5.40;99.90
17529;DHT22;8882;53.192;8.184;2023-02-16T07:47:23;5.40;99.90
17529;DHT22;8882;53.192;8.184;2023-02-16T07:49:49;5.40;99.90
17529;DHT22;8882;53.192;8.184;2023-02-16T07:52:14;5.40;99.90
17529;DHT22;8882;53.192;8.184;2023-02-16T07:54:40;5.50;99.90
17529;DHT22;8882;53.192;8.184;2023-02-16T07:57:05;5.50;99.90
17529;DHT22;8882;53.192;8.184;2023-02-16T07:59:31;5.50;99.90
17529;DHT22;8882;53.192;8.184;2023-02-16T08:01:57;5.50;99.90
17529;DHT22;8882;53.192;8.184;2023-02-16T08:04:23;5.50;99.90
17529;DHT22;8882;53.192;8.184;2023-02-16T08:06:48;5.50;99.90
17529;DHT22;8882;53.192;8.184;2023-02-16T08:09:15;5.60;99.90
17529;DHT22;8882;53.192;8.184;2023-02-16T08:11:40;5.60;99.90
17529;DHT22;8882;53.192;8.184;2023-02-16T08:14:06;5.60;99.90
17529;DHT22;8882;53.192;8.184;2023-02-16T08:16:31;5.60;99.90
17529;DHT22;8882;53.192;8.184;2023-02-16T08:18:58;5.60;99.90
17529;DHT22;8882;53.192;8.184;2023-02-16T08:21:27;5.60;99.90
17529;DHT22;8882;53.192;8.184;2023-02-16T08:24:01;5.70;99.90
17529;DHT22;8882;53.192;8.184;2023-02-16T08:26:29;5.70;99.90
17529;DHT22;8882;53.192;8.184;2023-02-16T08:28:57;5.70;99.90
17529;DHT22;8882;53.192;8.184;2023-02-16T08:31:25;5.70;99.90
17529;DHT22;8882;53.192;8.184;2023-02-16T08:33:53;5.70;99.90
17529;DHT22;8882;53.192;8.184;2023-02-16T08:36:21;5.80;99.90
17529;DHT22;8882;53.192;8.184;2023-02-16T08:38:48;5.80;99.90
17529;DHT22;8882;53.192;8.184;2023-02-16T08:41:18;5.80;99.90
17529;DHT22;8882;53.192;8.184;2023-02-16T08:43:44;5.90;99.90
17529;DHT22;8882;53.192;8.184;2023-02-16T08:46:10;5.90;99.90
17529;DHT22;8882;53.192;8.184;2023-02-16T08:48:36;5.90;99.90
17529;DHT22;8882;53.192;8.184;2023-02-16T08:51:02;6.00;99.90
17529;DHT22;8882;53.192;8.184;2023-02-16T08:53:28;6.00;99.90
17529;DHT22;8882;53.192;8.184;2023-02-16T08:55:58;6.00;99.90
17529;DHT22;8882;53.192;8.184;2023-02-16T08:58:25;6.10;99.90
17529;DHT22;8882;53.192;8.184;2023-02-16T09:00:51;6.10;99.90
17529;DHT22;8882;53.192;8.184;2023-02-16T09:03:17;6.10;99.90
17529;DHT22;8882;53.192;8.184;2023-02-16T09:05:46;6.20;99.90
17529;DHT22;8882;53.192;8.184;2023-02-16T09:08:12;6.20;99.90
17529;DHT22;8882;53.192;8.184;2023-02-16T09:10:38;6.30;99.90
17529;DHT22;8882;53.192;8.184;2023-02-16T09:13:04;6.30;99.90
17529;DHT22;8882;53.192;8.184;2023-02-16T09:15:31;6.30;99.90
17529;DHT22;8882;53.192;8.184;2023-02-16T09:17:57;6.40;99.90
17529;DHT22;8882;53.192;8.184;2023-02-16T09:20:23;6.40;99.90
17529;DHT22;8882;53.192;8.184;2023-02-16T09:22:48;6.50;99.90
17529;DHT22;8882;53.192;8.184;2023-02-16T09:25:14;6.50;99.90
17529;DHT22;8882;53.192;8.184;2023-02-16T09:27:41;6.60;99.90
17529;DHT22;8882;53.192;8.184;2023-02-16T09:30:08;6.60;99.90
17529;DHT22;8882;53.192;8.184;2023-02-16T09:32:34;6.70;99.90
17529;DHT22;8882;53.192;8.184;2023-02-16T09:35:01;6.80;99.90
17529;DHT22;8882;53.192;8.184;2023-02-16T09:37:26;6.80;99.90
17529;DHT22;8882;53.192;8.184;2023-02-16T09:39:52;6.80;99.90
17529;DHT22;8882;53.192;8.184;2023-02-16T09:42:32;6.90;99.90
17529;DHT22;8882;53.192;8.184;2023-02-16T09:45:09;6.90;99.90
17529;DHT22;8882;53.192;8.184;2023-02-16T09:47:38;7.00;99.90
17529;DHT22;8882;53.192;8.184;2023-02-16T09:50:25;7.00;99.90
17529;DHT22;8882;53.192;8.184;2023-02-16T09:53:18;7.00;99.90
17529;DHT22;8882;53.192;8.184;2023-02-16T09:56:11;7.00;99.90
17529;DHT22;8882;53.192;8.184;2023-02-16T09:58:47;7.00;99.90
17529;DHT22;8882;53.192;8.184;2023-02-16T10:04:41;7.10;99.90
17529;DHT22;8882;53.192;8.184;2023-02-16T10:09:50;7.10;99.90
17529;DHT22;8882;53.192;8.184;2023-02-16T10:12:23;7.20;99.90
17529;DHT22;8882;53.192;8.184;2023-02-16T10:14:53;7.20;99.90
17529;DHT22;8882;53.192;8.184;2023-02-16T10:20:11;7.20;99.90
17529;DHT22;8882;53.192;8.184;2023-02-16T10:26:01;7.20;99.90
17529;DHT22;8882;53.192;8.184;2023-02-16T10:28:35;7.20;99.90
17529;DHT22;8882;53.192;8.184;2023-02-16T10:31:11;7.20;99.90
17529;DHT22;8882;53.192;8.184;2023-02-16T10:33:43;7.20;99.90
17529;DHT22;8882;53.192;8.184;2023-02-16T10:38:53;7.20;99.90
17529;DHT22;8882;53.192;8.184;2023-02-16T10:41:30;7.30;99.90
17529;DHT22;8882;53.192;8.184;2023-02-16T10:47:19;7.30;99.90
17529;DHT22;8882;53.192;8.184;2023-02-16T10:49:49;7.30;99.90
17529;DHT22;8882;53.192;8.184;2023-02-16T10:52:16;7.30;99.90
17529;DHT22;8882;53.192;8.184;2023-02-16T10:54:41;7.40;99.90
17529;DHT22;8882;53.192;8.184;2023-02-16T10:57:24;7.30;99.90
17529;DHT22;8882;53.192;8.184;2023-02-16T10:59:50;7.30;99.90
17529;DHT22;8882;53.192;8.184;2023-02-16T11:02:19;7.40;99.90
17529;DHT22;8882;53.192;8.184;2023-02-16T11:04:49;7.40;99.90
17529;DHT22;8882;53.192;8.184;2023-02-16T11:07:22;7.30;99.90
17529;DHT22;8882;53.192;8.184;2023-02-16T11:09:52;7.30;99.90
17529;DHT22;8882;53.192;8.184;2023-02-16T11:12:37;7.30;99.90
17529;DHT22;8882;53.192;8.184;2023-02-16T11:15:21;7.30;99.90
17529;DHT22;8882;53.192;8.184;2023-02-16T11:17:53;7.30;99.90
17529;DHT22;8882;53.192;8.184;2023-02-16T11:20:34;7.30;99.90
17529;DHT22;8882;53.192;8.184;2023-02-16T11:28:43;7.20;99.90
17529;DHT22;8882;53.192;8.184;2023-02-16T11:31:17;7.20;99.90
17529;DHT22;8882;53.192;8.184;2023-02-16T11:34:00;7.20;99.90
17529;DHT22;8882;53.192;8.184;2023-02-16T11:36:43;7.20;99.90
17529;DHT22;8882;53.192;8.184;2023-02-16T11:39:27;7.20;99.90
17529;DHT22;8882;53.192;8.184;2023-02-16T11:41:57;7.20;99.90
17529;DHT22;8882;53.192;8.184;2023-02-16T11:44:30;7.20;99.90
17529;DHT22;8882;53.192;8.184;2023-02-16T11:47:00;7.10;99.90
17529;DHT22;8882;53.192;8.184;2023-02-16T11:49:38;7.20;99.90
17529;DHT22;8882;53.192;8.184;2023-02-16T11:52:26;7.20;99.90
17529;DHT22;8882;53.192;8.184;2023-02-16T11:54:54;7.20;99.90
17529;DHT22;8882;53.192;8.184;2023-02-16T11:57:38;7.20;99.90
17529;DHT22;8882;53.192;8.184;2023-02-16T12:00:18;7.20;99.90
17529;DHT22;8882;53.192;8.184;2023-02-16T12:03:08;7.20;99.90
17529;DHT22;8882;53.192;8.184;2023-02-16T12:05:59;7.20;99.90
17529;DHT22;8882;53.192;8.184;2023-02-16T12:08:45;7.30;99.90
17529;DHT22;8882;53.192;8.184;2023-02-16T12:17:41;7.50;99.90
17529;DHT22;8882;53.192;8.184;2023-02-16T12:20:29;8.00;99.90
17529;DHT22;8882;53.192;8.184;2023-02-16T12:23:23;8.00;99.90
17529;DHT22;8882;53.192;8.184;2023-02-16T12:26:03;7.80;99.90
17529;DHT22;8882;53.192;8.184;2023-02-16T12:28:50;7.80;99.90
17529;DHT22;8882;53.192;8.184;2023-02-16T12:31:49;7.80;99.90
17529;DHT22;8882;53.192;8.184;2023-02-16T12:34:26;7.80;99.90
17529;DHT22;8882;53.192;8.184;2023-02-16T12:37:20;7.70;99.90
17529;DHT22;8882;53.192;8.184;2023-02-16T12:42:52;7.60;99.90
17529;DHT22;8882;53.192;8.184;2023-02-16T12:45:25;7.60;99.90
17529;DHT22;8882;53.192;8.184;2023-02-16T12:47:59;7.50;99.90
17529;DHT22;8882;53.192;8.184;2023-02-16T12:50:31;7.50;99.90
17529;DHT22;8882;53.192;8.184;2023-02-16T12:53:23;7.40;99.90
17529;DHT22;8882;53.192;8.184;2023-02-16T12:56:07;7.40;99.90
17529;DHT22;8882;53.192;8.184;2023-02-16T12:58:39;7.40;99.90
17529;DHT22;8882;53.192;8.184;2023-02-16T13:01:12;7.40;99.90
17529;DHT22;8882;53.192;8.184;2023-02-16T13:03:51;7.50;99.90
17529;DHT22;8882;53.192;8.184;2023-02-16T13:14:56;7.40;99.90
17529;DHT22;8882;53.192;8.184;2023-02-16T13:17:31;7.50;99.90
17529;DHT22;8882;53.192;8.184;2023-02-16T13:19:58;7.50;99.90
17529;DHT22;8882;53.192;8.184;2023-02-16T13:22:30;7.50;99.90
17529;DHT22;8882;53.192;8.184;2023-02-16T13:25:30;7.40;99.90
17529;DHT22;8882;53.192;8.184;2023-02-16T13:28:22;7.50;99.90
17529;DHT22;8882;53.192;8.184;2023-02-16T13:31:17;7.40;99.90
17529;DHT22;8882;53.192;8.184;2023-02-16T13:42:30;7.70;99.90
17529;DHT22;8882;53.192;8.184;2023-02-16T13:45:01;7.60;99.90
17529;DHT22;8882;53.192;8.184;2023-02-16T13:47:38;7.50;99.90
17529;DHT22;8882;53.192;8.184;2023-02-16T13:50:07;7.50;99.90
17529;DHT22;8882;53.192;8.184;2023-02-16T13:52:52;7.50;99.90
17529;DHT22;8882;53.192;8.184;2023-02-16T13:55:35;7.40;99.90
17529;DHT22;8882;53.192;8.184;2023-02-16T14:00:39;7.40;99.90
17529;DHT22;8882;53.192;8.184;2023-02-16T14:05:49;7.40;99.90
17529;DHT22;8882;53.192;8.184;2023-02-16T14:08:26;7.50;99.90
17529;DHT22;8882;53.192;8.184;2023-02-16T14:19:15;7.30;99.90
17529;DHT22;8882;53.192;8.184;2023-02-16T14:21:44;7.40;99.90
17529;DHT22;8882;53.192;8.184;2023-02-16T14:26:59;7.40;99.90
17529;DHT22;8882;53.192;8.184;2023-02-16T14:29:37;7.40;99.90
17529;DHT22;8882;53.192;8.184;2023-02-16T14:32:24;7.40;99.90
17529;DHT22;8882;53.192;8.184;2023-02-16T14:35:12;7.40;99.90
17529;DHT22;8882;53.192;8.184;2023-02-16T14:37:44;7.40;99.90
17529;DHT22;8882;53.192;8.184;2023-02-16T14:40:22;7.40;99.90
17529;DHT22;8882;53.192;8.184;2023-02-16T14:43:29;7.50;99.90
17529;DHT22;8882;53.192;8.184;2023-02-16T14:49:04;7.50;99.90
17529;DHT22;8882;53.192;8.184;2023-02-16T14:57:11;7.50;99.90
17529;DHT22;8882;53.192;8.184;2023-02-16T14:59:47;7.60;99.90
17529;DHT22;8882;53.192;8.184;2023-02-16T15:02:25;7.60;99.90
17529;DHT22;8882;53.192;8.184;2023-02-16T15:04:50;7.60;99.90
17529;DHT22;8882;53.192;8.184;2023-02-16T15:07:17;7.60;99.90
17529;DHT22;8882;53.192;8.184;2023-02-16T15:09:44;7.60;99.90
17529;DHT22;8882;53.192;8.184;2023-02-16T15:12:12;7.50;99.90
17529;DHT22;8882;53.192;8.184;2023-02-16T15:14:55;7.60;99.90
17529;DHT22;8882;53.192;8.184;2023-02-16T15:22:30;7.50;99.90
17529;DHT22;8882;53.192;8.184;2023-02-16T15:25:06;7.50;99.90
17529;DHT22;8882;53.192;8.184;2023-02-16T15:27:32;7.50;99.90
17529;DHT22;8882;53.192;8.184;2023-02-16T15:30:22;7.50;99.90
17529;DHT22;8882;53.192;8.184;2023-02-16T15:33:00;7.50;99.90
17529;DHT22;8882;53.192;8.184;2023-02-16T15:35:33;7.50;99.90
17529;DHT22;8882;53.192;8.184;2023-02-16T15:40:27;7.50;99.90
17529;DHT22;8882;53.192;8.184;2023-02-16T15:43:02;7.50;99.90
17529;DHT22;8882;53.192;8.184;2023-02-16T15:45:32;7.50;99.90
17529;DHT22;8882;53.192;8.184;2023-02-16T15:48:13;7.50;99.90
17529;DHT22;8882;53.192;8.184;2023-02-16T15:50:41;7.50;99.90
17529;DHT22;8882;53.192;8.184;2023-02-16T15:53:11;7.50;99.90
17529;DHT22;8882;53.192;8.184;2023-02-16T15:55:44;7.50;99.90
17529;DHT22;8882;53.192;8.184;2023-02-16T15:58:12;7.50;99.90
17529;DHT22;8882;53.192;8.184;2023-02-16T16:00:40;7.50;99.90
17529;DHT22;8882;53.192;8.184;2023-02-16T16:03:08;7.50;99.90
17529;DHT22;8882;53.192;8.184;2023-02-16T16:05:36;7.50;99.90
17529;DHT22;8882;53.192;8.184;2023-02-16T16:08:11;7.50;99.90
17529;DHT22;8882;53.192;8.184;2023-02-16T16:10:38;7.50;99.90
17529;DHT22;8882;53.192;8.184;2023-02-16T16:15:40;7.40;99.90
17529;DHT22;8882;53.192;8.184;2023-02-16T16:21:01;7.50;99.90
17529;DHT22;8882;53.192;8.184;2023-02-16T16:23:27;7.40;99.90
17529;DHT22;8882;53.192;8.184;2023-02-16T16:25:54;7.40;99.90
17529;DHT22;8882;53.192;8.184;2023-02-16T16:34:06;7.40;99.90
17529;DHT22;8882;53.192;8.184;2023-02-16T16:36:52;7.40;99.90
17529;DHT22;8882;53.192;8.184;2023-02-16T16:39:22;7.40;99.90
17529;DHT22;8882;53.192;8.184;2023-02-16T16:55:25;7.40;99.90
17529;DHT22;8882;53.192;8.184;2023-02-16T16:57:54;7.40;99.90
17529;DHT22;8882;53.192;8.184;2023-02-16T17:00:21;7.40;99.90
17529;DHT22;8882;53.192;8.184;2023-02-16T17:02:47;7.30;99.90
17529;DHT22;8882;53.192;8.184;2023-02-16T17:05:13;7.30;99.90
17529;DHT22;8882;53.192;8.184;2023-02-16T17:07:38;7.30;99.90
17529;DHT22;8882;53.192;8.184;2023-02-16T17:10:05;7.30;99.90
17529;DHT22;8882;53.192;8.184;2023-02-16T17:12:30;7.30;99.90
17529;DHT22;8882;53.192;8.184;2023-02-16T17:14:56;7.30;99.90
17529;DHT22;8882;53.192;8.184;2023-02-16T17:17:22;7.30;99.90
17529;DHT22;8882;53.192;8.184;2023-02-16T17:19:47;7.30;99.90
17529;DHT22;8882;53.192;8.184;2023-02-16T17:22:15;7.30;99.90
17529;DHT22;8882;53.192;8.184;2023-02-16T17:24:40;7.30;99.90
17529;DHT22;8882;53.192;8.184;2023-02-16T17:27:06;7.30;99.90
17529;DHT22;8882;53.192;8.184;2023-02-16T17:31:32;7.30;99.90
17529;DHT22;8882;53.192;8.184;2023-02-16T17:33:57;7.30;99.90
17529;DHT22;8882;53.192;8.184;2023-02-16T17:36:25;7.20;99.90
17529;DHT22;8882;53.192;8.184;2023-02-16T17:38:51;7.30;99.90
17529;DHT22;8882;53.192;8.184;2023-02-16T17:41:23;7.20;99.90
17529;DHT22;8882;53.192;8.184;2023-02-16T17:43:49;7.30;99.90
17529;DHT22;8882;53.192;8.184;2023-02-16T17:46:16;7.30;99.90
17529;DHT22;8882;53.192;8.184;2023-02-16T17:48:42;7.20;99.90
17529;DHT22;8882;53.192;8.184;2023-02-16T17:51:13;7.20;99.90
17529;DHT22;8882;53.192;8.184;2023-02-16T17:53:39;7.20;99.90
17529;DHT22;8882;53.192;8.184;2023-02-16T17:56:05;7.20;99.90
17529;DHT22;8882;53.192;8.184;2023-02-16T17:58:30;7.20;99.90
17529;DHT22;8882;53.192;8.184;2023-02-16T18:00:56;7.20;99.90
17529;DHT22;8882;53.192;8.184;2023-02-16T18:03:22;7.20;99.90
17529;DHT22;8882;53.192;8.184;2023-02-16T18:05:49;7.20;99.90
17529;DHT22;8882;53.192;8.184;2023-02-16T18:08:15;7.20;99.90
17529;DHT22;8882;53.192;8.184;2023-02-16T18:10:44;7.20;99.90
17529;DHT22;8882;53.192;8.184;2023-02-16T18:13:11;7.20;99.90
17529;DHT22;8882;53.192;8.184;2023-02-16T18:15:38;7.20;99.90
17529;DHT22;8882;53.192;8.184;2023-02-16T18:18:05;7.20;99.90
17529;DHT22;8882;53.192;8.184;2023-02-16T18:20:32;7.20;99.90
17529;DHT22;8882;53.192;8.184;2023-02-16T18:22:58;7.20;99.90
17529;DHT22;8882;53.192;8.184;2023-02-16T18:25:23;7.20;99.90
17529;DHT22;8882;53.192;8.184;2023-02-16T18:27:49;7.20;99.90
17529;DHT22;8882;53.192;8.184;2023-02-16T18:30:16;7.20;99.90
17529;DHT22;8882;53.192;8.184;2023-02-16T18:32:42;7.20;99.90
17529;DHT22;8882;53.192;8.184;2023-02-16T18:35:09;7.20;99.90
17529;DHT22;8882;53.192;8.184;2023-02-16T18:37:35;7.20;99.90
17529;DHT22;8882;53.192;8.184;2023-02-16T18:40:01;7.20;99.90
17529;DHT22;8882;53.192;8.184;2023-02-16T18:42:26;7.20;99.90
17529;DHT22;8882;53.192;8.184;2023-02-16T18:44:52;7.30;99.90
17529;DHT22;8882;53.192;8.184;2023-02-16T18:47:17;7.30;99.90
17529;DHT22;8882;53.192;8.184;2023-02-16T18:49:43;7.20;99.90
17529;DHT22;8882;53.192;8.184;2023-02-16T18:52:09;7.20;99.90
17529;DHT22;8882;53.192;8.184;2023-02-16T18:54:35;7.20;99.90
17529;DHT22;8882;53.192;8.184;2023-02-16T18:57:00;7.20;99.90
17529;DHT22;8882;53.192;8.184;2023-02-16T18:59:26;7.30;99.90
17529;DHT22;8882;53.192;8.184;2023-02-16T19:01:56;7.30;99.90
17529;DHT22;8882;53.192;8.184;2023-02-16T19:04:22;7.30;99.90
17529;DHT22;8882;53.192;8.184;2023-02-16T19:06:48;7.30;99.90
17529;DHT22;8882;53.192;8.184;2023-02-16T19:09:14;7.30;99.90
17529;DHT22;8882;53.192;8.184;2023-02-16T19:11:39;7.30;99.90
17529;DHT22;8882;53.192;8.184;2023-02-16T19:14:05;7.30;99.90
17529;DHT22;8882;53.192;8.184;2023-02-16T19:16:30;7.30;99.90
17529;DHT22;8882;53.192;8.184;2023-02-16T19:18:56;7.30;99.90
17529;DHT22;8882;53.192;8.184;2023-02-16T19:21:21;7.30;99.90
17529;DHT22;8882;53.192;8.184;2023-02-16T19:23:47;7.40;99.90
17529;DHT22;8882;53.192;8.184;2023-02-16T19:26:14;7.30;99.90
17529;DHT22;8882;53.192;8.184;2023-02-16T19:28:41;7.40;99.90
17529;DHT22;8882;53.192;8.184;2023-02-16T19:31:13;7.40;99.90
17529;DHT22;8882;53.192;8.184;2023-02-16T19:33:40;7.40;99.90
17529;DHT22;8882;53.192;8.184;2023-02-16T19:36:08;7.40;99.90
17529;DHT22;8882;53.192;8.184;2023-02-16T19:38:35;7.50;99.90
17529;DHT22;8882;53.192;8.184;2023-02-16T19:41:07;7.50;99.90
17529;DHT22;8882;53.192;8.184;2023-02-16T19:43:33;7.50;99.90
17529;DHT22;8882;53.192;8.184;2023-02-16T19:45:58;7.50;99.90
17529;DHT22;8882;53.192;8.184;2023-02-16T19:48:24;7.50;99.90
17529;DHT22;8882;53.192;8.184;2023-02-16T19:50:50;7.60;99.90
17529;DHT22;8882;53.192;8.184;2023-02-16T19:53:20;7.50;99.90
17529;DHT22;8882;53.192;8.184;2023-02-16T19:55:45;7.60;99.90
17529;DHT22;8882;53.192;8.184;2023-02-16T19:58:12;7.50;99.90
17529;DHT22;8882;53.192;8.184;2023-02-16T20:00:38;7.60;99.90
17529;DHT22;8882;53.192;8.184;2023-02-16T20:03:03;7.60;99.90
17529;DHT22;8882;53.192;8.184;2023-02-16T20:05:29;7.60;99.90
17529;DHT22;8882;53.192;8.184;2023-02-16T20:07:54;7.60;99.90
17529;DHT22;8882;53.192;8.184;2023-02-16T20:10:20;7.60;99.90
17529;DHT22;8882;53.192;8.184;2023-02-16T20:12:45;7.60;99.90
17529;DHT22;8882;53.192;8.184;2023-02-16T20:15:11;7.60;99.90
17529;DHT22;8882;53.192;8.184;2023-02-16T20:17:38;7.60;99.90
17529;DHT22;8882;53.192;8.184;2023-02-16T20:20:04;7.60;99.90
17529;DHT22;8882;53.192;8.184;2023-02-16T20:22:29;7.70;99.90
17529;DHT22;8882;53.192;8.184;2023-02-16T20:24:55;7.70;99.90
17529;DHT22;8882;53.192;8.184;2023-02-16T20:27:20;7.60;99.90
17529;DHT22;8882;53.192;8.184;2023-02-16T20:29:46;7.70;99.90
17529;DHT22;8882;53.192;8.184;2023-02-16T20:32:11;7.70;99.90
17529;DHT22;8882;53.192;8.184;2023-02-16T20:34:37;7.70;99.90
17529;DHT22;8882;53.192;8.184;2023-02-16T20:37:02;7.70;99.90
17529;DHT22;8882;53.192;8.184;2023-02-16T20:39:28;7.70;99.90
17529;DHT22;8882;53.192;8.184;2023-02-16T20:41:54;7.70;99.90
17529;DHT22;8882;53.192;8.184;2023-02-16T20:44:19;7.70;99.90
17529;DHT22;8882;53.192;8.184;2023-02-16T20:46:46;7.70;99.90
17529;DHT22;8882;53.192;8.184;2023-02-16T20:49:12;7.80;99.90
17529;DHT22;8882;53.192;8.184;2023-02-16T20:51:38;7.80;99.90
17529;DHT22;8882;53.192;8.184;2023-02-16T20:54:05;7.80;99.90
17529;DHT22;8882;53.192;8.184;2023-02-16T20:56:31;7.80;99.90
17529;DHT22;8882;53.192;8.184;2023-02-16T20:58:57;7.80;99.90
17529;DHT22;8882;53.192;8.184;2023-02-16T21:01:26;7.80;99.90
17529;DHT22;8882;53.192;8.184;2023-02-16T21:03:53;7.80;99.90
17529;DHT22;8882;53.192;8.184;2023-02-16T21:06:20;7.80;99.90
17529;DHT22;8882;53.192;8.184;2023-02-16T21:08:46;7.90;99.90
17529;DHT22;8882;53.192;8.184;2023-02-16T21:11:12;7.90;99.90
17529;DHT22;8882;53.192;8.184;2023-02-16T21:13:39;7.90;99.90
17529;DHT22;8882;53.192;8.184;2023-02-16T21:16:05;7.90;99.90
17529;DHT22;8882;53.192;8.184;2023-02-16T21:18:31;7.90;99.90
17529;DHT22;8882;53.192;8.184;2023-02-16T21:20:59;7.90;99.90
17529;DHT22;8882;53.192;8.184;2023-02-16T21:23:24;7.90;99.90
17529;DHT22;8882;53.192;8.184;2023-02-16T21:25:50;7.90;99.90
17529;DHT22;8882;53.192;8.184;2023-02-16T21:28:16;8.00;99.90
17529;DHT22;8882;53.192;8.184;2023-02-16T21:30:41;8.00;99.90
17529;DHT22;8882;53.192;8.184;2023-02-16T21:33:08;8.00;99.90
17529;DHT22;8882;53.192;8.184;2023-02-16T21:35:33;8.00;99.90
17529;DHT22;8882;53.192;8.184;2023-02-16T21:37:59;8.00;99.90
